createdAt,value
2022-08-05T00:02:59.402Z,15.10
2022-08-05T00:06:27.775Z,11.30
2022-08-05T00:09:31.770Z,11.90
2022-08-05T00:12:56.396Z,10.50
2022-08-05T00:16:03.171Z,11.40
2022-08-05T00:19:11.002Z,14.00
2022-08-05T00:25:24.291Z,12.10
2022-08-05T00:28:30.447Z,9.70
2022-08-05T00:31:54.457Z,10.50
2022-08-05T00:35:07.521Z,10.80
2022-08-05T00:38:14.756Z,10.60
2022-08-05T00:41:51.739Z,10.40
2022-08-05T00:44:57.260Z,10.90
2022-08-05T00:48:05.397Z,10.90
2022-08-05T00:51:12.439Z,12.60
2022-08-05T00:54:38.567Z,13.00
2022-08-05T00:57:58.781Z,10.20
2022-08-05T01:01:08.904Z,12.60
2022-08-05T01:04:16.136Z,13.00
2022-08-05T01:07:31.603Z,12.10
2022-08-05T01:10:51.531Z,11.50
2022-08-05T01:14:08.540Z,11.20
2022-08-05T01:17:21.707Z,11.70
2022-08-05T01:20:36.065Z,10.40
2022-08-05T01:24:03.430Z,11.50
2022-08-05T01:27:35.281Z,10.40
2022-08-05T01:31:03.268Z,10.50
2022-08-05T01:34:13.735Z,9.80
2022-08-05T01:37:26.127Z,11.30
2022-08-05T01:40:34.202Z,10.00
2022-08-05T01:43:41.410Z,11.40
2022-08-05T01:46:50.189Z,15.30
2022-08-05T01:50:03.027Z,11.50
2022-08-05T01:53:17.027Z,11.40
2022-08-05T01:58:12.974Z,12.60
2022-08-05T02:00:12.898Z,11.30
2022-08-05T02:03:29.053Z,11.00
2022-08-05T02:06:40.682Z,11.40
2022-08-05T02:09:51.730Z,12.80
2022-08-05T02:13:02.985Z,12.00
2022-08-05T02:16:25.802Z,11.50
2022-08-05T02:19:41.405Z,11.10
2022-08-05T02:22:59.675Z,10.90
2022-08-05T02:26:09.353Z,10.90
2022-08-05T02:29:24.250Z,10.20
2022-08-05T02:32:52.584Z,10.50
2022-08-05T02:36:01.182Z,10.80
2022-08-05T02:39:10.398Z,10.40
2022-08-05T02:42:25.886Z,11.40
2022-08-05T02:45:52.149Z,9.80
2022-08-05T02:52:06.800Z,10.60
2022-08-05T02:55:15.062Z,10.10
2022-08-05T02:58:43.714Z,10.50
2022-08-05T03:01:52.704Z,9.80
2022-08-05T03:05:01.351Z,9.80
2022-08-05T03:08:08.959Z,11.90
2022-08-05T03:11:56.690Z,10.90
2022-08-05T03:14:52.569Z,12.80
2022-08-05T03:17:59.476Z,10.70
2022-08-05T03:21:06.212Z,11.50
2022-08-05T03:24:13.696Z,11.10
2022-08-05T03:27:22.426Z,9.90
2022-08-05T03:30:38.188Z,12.10
2022-08-05T03:33:52.768Z,11.80
2022-08-05T03:36:59.783Z,9.90
2022-08-05T03:40:09.031Z,9.40
2022-08-05T03:44:09.702Z,9.90
2022-08-05T03:46:45.437Z,10.20
2022-08-05T03:49:52.629Z,11.80
2022-08-05T03:55:53.047Z,11.50
2022-08-05T03:56:42.837Z,11.10
2022-08-05T03:59:57.219Z,12.00
2022-08-05T04:03:07.527Z,10.30
2022-08-05T04:06:22.190Z,11.10
2022-08-05T04:09:32.841Z,11.60
2022-08-05T04:15:52.721Z,11.90
2022-08-05T04:19:12.530Z,9.80
2022-08-05T04:22:20.405Z,11.30
2022-08-05T04:25:57.976Z,12.20
2022-08-05T04:28:54.156Z,11.50
2022-08-05T04:32:00.514Z,14.20
2022-08-05T04:35:17.391Z,12.50
2022-08-05T04:38:39.123Z,11.00
2022-08-05T04:41:46.375Z,11.60
2022-08-05T04:44:54.538Z,12.60
2022-08-05T04:48:10.274Z,10.50
2022-08-05T04:51:24.978Z,12.20
2022-08-05T04:54:31.172Z,12.70
2022-08-05T04:57:38.262Z,13.00
2022-08-05T05:00:45.217Z,13.20
2022-08-05T05:03:56.962Z,11.30
2022-08-05T05:07:03.095Z,15.30
2022-08-05T05:10:10.018Z,13.10
2022-08-05T05:13:17.807Z,11.70
2022-08-05T05:16:24.027Z,12.10
2022-08-05T05:22:56.763Z,11.40
2022-08-05T05:26:03.813Z,11.20
2022-08-05T05:29:14.407Z,11.70
2022-08-05T05:32:21.211Z,12.30
2022-08-05T05:35:27.415Z,11.80
2022-08-05T05:38:35.459Z,11.80
2022-08-05T05:41:41.939Z,13.20
2022-08-05T05:44:48.660Z,13.20
2022-08-05T05:48:07.047Z,12.30
2022-08-05T05:51:19.060Z,11.70
2022-08-05T05:54:50.341Z,12.60
2022-08-05T05:57:52.922Z,10.60
2022-08-05T06:01:04.940Z,13.30
2022-08-05T06:04:19.623Z,10.00
2022-08-05T06:07:41.328Z,11.80
2022-08-05T06:10:49.154Z,11.40
2022-08-05T06:14:00.371Z,12.40
2022-08-05T06:17:22.573Z,12.20
2022-08-05T06:20:30.898Z,11.00
2022-08-05T06:23:43.694Z,11.30
2022-08-05T06:26:51.971Z,10.60
2022-08-05T06:30:05.896Z,11.20
2022-08-05T06:33:33.295Z,10.70
2022-08-05T06:36:57.333Z,11.40
2022-08-05T06:43:58.189Z,11.70
2022-08-05T06:46:35.251Z,13.20
2022-08-05T06:50:00.759Z,12.00
2022-08-05T06:53:19.659Z,12.10
2022-08-05T06:56:35.223Z,12.40
2022-08-05T06:59:42.198Z,9.50
2022-08-05T07:02:54.814Z,9.60
2022-08-05T07:06:05.704Z,11.50
2022-08-05T07:09:20.416Z,11.60
2022-08-05T07:12:49.144Z,11.10
2022-08-05T07:16:13.041Z,9.90
2022-08-05T07:23:06.553Z,9.60
2022-08-05T07:26:13.980Z,9.90
2022-08-05T07:29:20.331Z,11.00
2022-08-05T07:32:46.543Z,9.70
2022-08-05T07:36:04.064Z,9.70
2022-08-05T07:39:24.711Z,9.30
2022-08-05T07:42:38.315Z,8.60
2022-08-05T07:45:57.201Z,10.10
2022-08-05T07:49:07.952Z,8.30
2022-08-05T07:52:14.268Z,8.60
2022-08-05T07:55:57.202Z,9.40
2022-08-05T07:58:57.389Z,8.90
2022-08-05T08:02:07.339Z,13.80
2022-08-05T08:05:21.890Z,8.40
2022-08-05T08:08:28.085Z,8.60
2022-08-05T08:11:47.556Z,8.50
2022-08-05T08:15:02.726Z,9.00
2022-08-05T08:18:14.093Z,8.20
2022-08-05T08:21:20.732Z,9.60
2022-08-05T08:24:37.100Z,9.70
2022-08-05T08:27:52.887Z,9.60
2022-08-05T08:30:59.046Z,10.80
2022-08-05T08:34:07.805Z,8.60
2022-08-05T08:37:14.347Z,9.60
2022-08-05T08:40:26.330Z,9.20
2022-08-05T08:45:18.685Z,9.00
2022-08-05T08:47:01.315Z,10.30
2022-08-05T08:50:30.972Z,11.10
2022-08-05T08:53:45.198Z,9.80
2022-08-05T08:56:51.727Z,12.40
2022-08-05T08:59:59.615Z,9.40
2022-08-05T09:03:08.765Z,8.20
2022-08-05T09:06:20.033Z,9.50
2022-08-05T09:09:34.963Z,9.10
2022-08-05T09:15:48.438Z,8.30
2022-08-05T09:18:55.517Z,8.90
2022-08-05T09:22:23.268Z,9.30
2022-08-05T09:26:01.097Z,10.20
2022-08-05T09:29:00.521Z,10.10
2022-08-05T09:32:45.846Z,8.40
2022-08-05T09:35:35.286Z,8.40
2022-08-05T09:38:59.270Z,9.60
2022-08-05T09:42:07.775Z,9.60
2022-08-05T09:46:04.914Z,8.80
2022-08-05T09:48:43.323Z,8.90
2022-08-05T09:52:22.907Z,7.80
2022-08-05T09:55:56.795Z,10.20
2022-08-05T09:59:06.711Z,8.80
2022-08-05T10:02:13.326Z,8.90
2022-08-05T10:05:21.906Z,9.00
2022-08-05T10:08:37.499Z,8.80
2022-08-05T10:11:45.027Z,7.70
2022-08-05T10:14:54.382Z,9.70
2022-08-05T10:18:12.231Z,8.10
2022-08-05T10:21:18.410Z,10.50
2022-08-05T10:24:29.883Z,8.80
2022-08-05T10:28:13.232Z,10.50
2022-08-05T10:32:50.848Z,8.50
2022-08-05T10:34:32.701Z,9.10
2022-08-05T10:37:44.623Z,7.70
2022-08-05T10:41:00.608Z,7.70
2022-08-05T10:44:12.977Z,8.30
2022-08-05T10:47:26.140Z,9.40
2022-08-05T10:50:37.164Z,8.80
2022-08-05T10:53:46.764Z,10.60
2022-08-05T10:56:56.139Z,8.10
2022-08-05T11:00:20.465Z,7.30
2022-08-05T11:03:27.482Z,12.40
2022-08-05T11:06:34.479Z,8.70
2022-08-05T11:09:47.313Z,8.60
2022-08-05T11:12:54.974Z,8.10
2022-08-05T11:16:33.844Z,9.70
2022-08-05T11:20:16.849Z,9.50
2022-08-05T11:24:04.208Z,8.90
2022-08-05T11:27:45.744Z,8.00
2022-08-05T11:31:58.330Z,8.70
2022-08-05T11:34:56.318Z,8.00
2022-08-05T11:38:37.243Z,7.60
2022-08-05T11:41:58.204Z,8.50
2022-08-05T11:45:06.030Z,9.20
2022-08-05T11:48:31.422Z,8.60
2022-08-05T11:51:43.690Z,8.70
2022-08-05T11:54:55.798Z,9.10
2022-08-05T11:58:09.717Z,8.30
2022-08-05T12:01:19.911Z,8.80
2022-08-05T12:04:27.016Z,7.30
2022-08-05T12:08:03.301Z,8.60
2022-08-05T12:11:08.010Z,8.10
2022-08-05T12:14:14.454Z,8.40
2022-08-05T12:18:00.815Z,6.80
2022-08-05T12:20:49.459Z,7.70
2022-08-05T12:24:05.011Z,9.50
2022-08-05T12:27:21.672Z,11.20
2022-08-05T12:30:45.956Z,8.90
2022-08-05T12:33:53.167Z,10.80
2022-08-05T12:37:01.576Z,9.70
2022-08-05T12:40:20.720Z,7.50
2022-08-05T12:43:33.345Z,9.40
2022-08-05T12:46:53.334Z,7.40
2022-08-05T12:50:02.431Z,8.20
2022-08-05T12:53:17.574Z,8.10
2022-08-05T12:56:34.401Z,7.40
2022-08-05T13:01:58.022Z,8.90
2022-08-05T13:03:16.549Z,8.00
2022-08-05T13:06:23.150Z,10.50
2022-08-05T13:09:30.518Z,8.10
2022-08-05T13:12:57.248Z,8.20
2022-08-05T13:16:04.789Z,8.20
2022-08-05T13:19:15.950Z,7.40
2022-08-05T13:22:28.465Z,8.30
2022-08-05T13:25:51.855Z,8.80
2022-08-05T13:29:03.018Z,7.90
2022-08-05T13:32:11.715Z,8.80
2022-08-05T13:35:42.734Z,9.30
2022-08-05T13:38:53.610Z,9.10
2022-08-05T13:42:00.603Z,10.00
2022-08-05T13:45:08.442Z,7.80
2022-08-05T13:48:58.419Z,10.10
2022-08-05T13:51:46.120Z,8.30
2022-08-05T13:54:53.675Z,11.60
2022-08-05T13:58:00.016Z,10.30
2022-08-05T14:01:07.066Z,8.30
2022-08-05T14:04:31.185Z,9.20
2022-08-05T14:08:00.537Z,7.30
2022-08-05T14:11:20.996Z,7.70
2022-08-05T14:14:33.647Z,7.90
2022-08-05T14:17:40.104Z,7.50
2022-08-05T14:20:47.136Z,7.80
2022-08-05T14:23:53.667Z,8.10
2022-08-05T14:27:17.259Z,7.80
2022-08-05T14:30:26.675Z,8.40
2022-08-05T14:34:00.341Z,9.40
2022-08-05T14:37:00.300Z,10.10
2022-08-05T14:40:08.038Z,8.50
2022-08-05T14:43:14.362Z,8.90
2022-08-05T14:46:20.784Z,9.60
2022-08-05T14:49:56.226Z,8.00
2022-08-05T14:52:57.734Z,7.50
2022-08-05T14:56:05.439Z,8.70
2022-08-05T14:59:11.634Z,9.20
2022-08-05T15:02:19.101Z,7.70
2022-08-05T15:05:29.945Z,8.20
2022-08-05T15:09:01.226Z,9.00
2022-08-05T15:12:17.028Z,8.90
2022-08-05T15:15:55.018Z,10.10
2022-08-05T15:18:52.770Z,7.90
2022-08-05T15:22:01.413Z,8.30
2022-08-05T15:25:12.001Z,8.30
2022-08-05T15:28:20.497Z,8.60
2022-08-05T15:31:34.762Z,9.10
2022-08-05T15:34:41.303Z,8.90
2022-08-05T15:38:34.853Z,9.00
2022-08-05T15:41:20.915Z,9.40
2022-08-05T15:44:30.968Z,10.70
2022-08-05T15:47:37.195Z,9.30
2022-08-05T15:50:47.471Z,8.00
2022-08-05T15:53:53.688Z,15.50
2022-08-05T15:56:59.808Z,9.80
2022-08-05T16:00:08.180Z,9.10
2022-08-05T16:03:14.404Z,8.90
2022-08-05T16:06:23.251Z,9.40
2022-08-05T16:09:29.791Z,9.30
2022-08-05T16:12:38.766Z,9.70
2022-08-05T16:15:45.399Z,8.70
2022-08-05T16:18:53.664Z,9.90
2022-08-05T16:22:03.459Z,9.20
2022-08-05T16:25:11.321Z,8.50
2022-08-05T16:28:18.144Z,8.40
2022-08-05T16:31:24.693Z,10.00
2022-08-05T16:34:31.667Z,8.70
2022-08-05T16:38:03.627Z,9.80
2022-08-05T16:42:12.554Z,10.00
2022-08-05T16:44:33.343Z,8.90
2022-08-05T16:47:48.267Z,8.90
2022-08-05T16:51:00.577Z,9.80
2022-08-05T16:54:10.573Z,10.40
2022-08-05T16:57:48.615Z,12.30
2022-08-05T17:00:51.157Z,12.40
2022-08-05T17:03:57.394Z,13.10
2022-08-05T17:07:11.508Z,10.00
2022-08-05T17:10:18.150Z,10.40
2022-08-05T17:13:37.428Z,10.90
2022-08-05T17:16:47.518Z,12.60
2022-08-05T17:19:59.497Z,9.00
2022-08-05T17:23:05.627Z,13.60
2022-08-05T17:26:11.837Z,10.40
2022-08-05T17:29:17.985Z,9.20
2022-08-05T17:32:29.343Z,10.90
2022-08-05T17:36:08.918Z,10.30
2022-08-05T17:39:03.193Z,10.80
2022-08-05T17:42:18.159Z,9.70
2022-08-05T17:45:29.721Z,11.40
2022-08-05T17:48:45.023Z,11.40
2022-08-05T17:51:54.074Z,11.00
2022-08-05T17:55:03.136Z,11.90
2022-08-05T17:58:12.422Z,10.00
2022-08-05T18:01:18.999Z,10.60
2022-08-05T18:04:27.224Z,11.00
2022-08-05T18:07:41.461Z,10.50
2022-08-05T18:10:48.892Z,11.50
2022-08-05T18:13:55.397Z,12.40
2022-08-05T18:17:01.598Z,11.80
2022-08-05T18:20:15.139Z,12.40
2022-08-05T18:23:22.220Z,11.30
2022-08-05T18:26:29.506Z,12.00
2022-08-05T18:29:40.668Z,11.20
2022-08-05T18:32:53.681Z,14.00
2022-08-05T18:36:11.922Z,12.10
2022-08-05T18:39:42.045Z,12.60
2022-08-05T18:42:47.923Z,11.60
2022-08-05T18:45:54.302Z,12.30
2022-08-05T18:49:30.696Z,13.80
2022-08-05T18:52:51.750Z,15.30
2022-08-05T18:55:57.998Z,11.30
2022-08-05T18:59:44.410Z,11.50
2022-08-05T19:02:36.701Z,26.70
2022-08-05T19:06:11.479Z,30.60
2022-08-05T19:09:10.758Z,22.50
2022-08-05T19:12:17.727Z,17.00
2022-08-05T19:15:57.334Z,20.70
2022-08-05T19:18:51.269Z,14.00
2022-08-05T19:21:57.846Z,17.20
2022-08-05T19:25:05.321Z,16.10
2022-08-05T19:28:11.891Z,15.40
2022-08-05T19:31:21.439Z,17.80
2022-08-05T19:34:30.018Z,13.20
2022-08-05T19:38:06.758Z,14.50
2022-08-05T19:41:02.782Z,16.80
2022-08-05T19:44:14.228Z,18.10
2022-08-05T19:47:21.253Z,15.10
2022-08-05T19:50:31.326Z,15.30
2022-08-05T19:54:05.303Z,13.20
2022-08-05T19:57:06.591Z,16.40
2022-08-05T20:00:16.311Z,14.90
2022-08-05T20:03:27.469Z,12.90
2022-08-05T20:06:46.790Z,16.20
2022-08-05T20:09:54.502Z,13.70
2022-08-05T20:13:02.928Z,15.70
2022-08-05T20:16:10.016Z,17.80
2022-08-05T20:19:17.020Z,17.70
2022-08-05T20:22:23.365Z,16.90
2022-08-05T20:25:33.829Z,14.40
2022-08-05T20:28:48.813Z,16.80
2022-08-05T20:31:58.362Z,16.40
2022-08-05T20:35:07.206Z,19.20
2022-08-05T20:38:22.581Z,20.90
2022-08-05T20:41:44.593Z,19.20
2022-08-05T20:44:51.435Z,18.80
2022-08-05T20:47:58.763Z,17.20
2022-08-05T20:51:08.366Z,19.60
2022-08-05T20:54:14.651Z,16.70
2022-08-05T20:57:42.202Z,17.90
2022-08-05T21:00:54.815Z,18.30
2022-08-05T21:04:05.441Z,15.80
2022-08-05T21:07:11.717Z,18.10
2022-08-05T21:10:18.563Z,16.50
2022-08-05T21:13:37.817Z,15.70
2022-08-05T21:16:51.314Z,16.40
2022-08-05T21:19:58.092Z,16.80
2022-08-05T21:23:04.970Z,15.00
2022-08-05T21:26:15.148Z,16.50
2022-08-05T21:29:23.604Z,14.80
2022-08-05T21:32:32.691Z,15.00
2022-08-05T21:35:43.576Z,14.50
2022-08-05T21:39:02.345Z,16.00
2022-08-05T21:42:30.599Z,16.00
2022-08-05T21:45:56.944Z,15.70
2022-08-05T21:49:01.815Z,16.70
2022-08-05T21:52:15.781Z,16.90
2022-08-05T21:56:01.005Z,17.30
2022-08-05T21:58:57.377Z,18.60
2022-08-05T22:02:04.239Z,15.30
2022-08-05T22:05:11.555Z,21.60
2022-08-05T22:08:22.471Z,23.70
2022-08-05T22:11:34.807Z,21.90
2022-08-05T22:14:41.841Z,22.00
2022-08-05T22:17:59.758Z,18.30
2022-08-05T22:21:18.628Z,18.00
2022-08-05T22:24:52.318Z,15.30
2022-08-05T22:28:10.181Z,15.60
2022-08-05T22:31:17.799Z,17.00
2022-08-05T22:34:28.534Z,16.20
2022-08-05T22:37:58.633Z,15.50
2022-08-05T22:41:09.398Z,16.50
2022-08-05T22:44:16.206Z,16.70
2022-08-05T22:47:30.418Z,16.40
2022-08-05T22:50:36.839Z,20.70
2022-08-05T22:53:55.044Z,17.50
2022-08-05T22:57:01.503Z,16.50
2022-08-05T23:00:12.585Z,16.50
2022-08-05T23:06:49.399Z,16.60
2022-08-05T23:10:00.993Z,13.80
2022-08-05T23:13:08.190Z,15.30
2022-08-05T23:16:14.994Z,17.40
2022-08-05T23:19:46.657Z,16.70
2022-08-05T23:22:58.704Z,16.10
2022-08-05T23:26:05.119Z,15.00
2022-08-05T23:29:11.270Z,16.10
2022-08-05T23:32:22.796Z,15.20
2022-08-05T23:35:34.429Z,13.90
2022-08-05T23:38:40.848Z,15.90
2022-08-05T23:41:48.734Z,16.30
2022-08-05T23:44:55.166Z,15.80
2022-08-05T23:48:03.211Z,14.90
2022-08-05T23:51:10.934Z,14.70
2022-08-05T23:54:25.495Z,15.30
2022-08-05T23:57:32.668Z,16.40
